createdAt,value
2018-06-04T00:02:09.293Z,3.80
2018-06-04T00:04:36.752Z,4.20
2018-06-04T00:07:04.947Z,4.23
2018-06-04T00:09:32.442Z,4.63
2018-06-04T00:11:59.973Z,4.43
2018-06-04T00:14:27.541Z,4.07
2018-06-04T00:16:55.057Z,4.07
2018-06-04T00:19:22.544Z,3.90
2018-06-04T00:21:50.078Z,4.10
2018-06-04T00:24:17.574Z,4.27
2018-06-04T00:26:46.263Z,3.97
2018-06-04T00:29:13.764Z,4.30
2018-06-04T00:31:41.320Z,4.20
2018-06-04T00:34:08.835Z,3.90
2018-06-04T00:36:36.408Z,4.50
2018-06-04T00:39:06.242Z,4.60
2018-06-04T00:41:33.764Z,4.63
2018-06-04T00:44:01.273Z,4.30
2018-06-04T00:46:28.856Z,5.33
2018-06-04T00:48:56.352Z,4.03
2018-06-04T00:51:23.874Z,5.00
2018-06-04T00:53:51.366Z,4.87
2018-06-04T00:56:21.070Z,5.13
2018-06-04T00:58:48.561Z,4.77
2018-06-04T01:01:16.092Z,5.40
2018-06-04T01:03:43.620Z,4.33
2018-06-04T01:06:11.129Z,4.80
2018-06-04T01:08:38.669Z,4.67
2018-06-04T01:11:06.973Z,4.73
2018-06-04T01:13:34.548Z,5.00
2018-06-04T01:16:02.054Z,5.40
2018-06-04T01:18:29.584Z,5.13
2018-06-04T01:20:57.115Z,4.90
2018-06-04T01:23:24.628Z,5.00
2018-06-04T01:25:52.247Z,4.90
2018-06-04T01:28:19.865Z,5.57
2018-06-04T01:30:47.376Z,5.57
2018-06-04T01:33:14.883Z,6.00
2018-06-04T01:35:42.377Z,5.97
2018-06-04T01:38:09.885Z,6.30
2018-06-04T01:40:37.457Z,6.90
2018-06-04T01:43:05.021Z,5.73
2018-06-04T01:45:32.512Z,5.90
2018-06-04T01:48:00.028Z,6.23
2018-06-04T01:50:27.996Z,5.40
2018-06-04T01:52:55.508Z,6.37
2018-06-04T01:55:23.013Z,5.80
2018-06-04T01:57:50.531Z,5.97
2018-06-04T02:00:18.082Z,5.73
2018-06-04T02:02:45.612Z,5.20
2018-06-04T02:05:13.110Z,5.50
2018-06-04T02:07:40.614Z,5.97
2018-06-04T02:10:08.112Z,6.43
2018-06-04T02:12:35.632Z,6.00
2018-06-04T02:15:04.124Z,6.10
2018-06-04T02:17:31.640Z,5.50
2018-06-04T02:19:59.132Z,6.07
2018-06-04T02:22:26.649Z,6.43
2018-06-04T02:24:54.146Z,7.33
2018-06-04T02:27:21.653Z,7.13
2018-06-04T02:29:49.140Z,6.90
2018-06-04T02:32:16.653Z,6.43
2018-06-04T02:34:44.183Z,6.60
2018-06-04T02:37:11.692Z,6.50
2018-06-04T02:39:39.210Z,6.27
2018-06-04T02:42:06.746Z,6.40
2018-06-04T02:44:34.287Z,6.47
2018-06-04T02:47:01.782Z,6.30
2018-06-04T02:49:29.297Z,6.70
2018-06-04T02:51:56.792Z,7.87
2018-06-04T02:54:24.322Z,7.50
2018-06-04T02:56:51.746Z,7.27
2018-06-04T02:59:19.309Z,7.47
2018-06-04T03:01:46.797Z,8.03
2018-06-04T03:04:14.332Z,7.27
2018-06-04T03:06:41.905Z,7.90
2018-06-04T03:09:09.437Z,7.40
2018-06-04T03:11:36.941Z,7.43
2018-06-04T03:14:05.245Z,7.47
2018-06-04T03:16:33.016Z,8.03
2018-06-04T03:19:00.554Z,7.20
2018-06-04T03:21:28.249Z,8.03
2018-06-04T03:23:55.793Z,7.97
2018-06-04T03:26:23.273Z,8.03
2018-06-04T03:28:50.845Z,9.70
2018-06-04T03:31:18.365Z,8.30
2018-06-04T03:33:45.901Z,8.93
2018-06-04T03:36:13.391Z,8.40
2018-06-04T03:38:40.906Z,8.83
2018-06-04T03:41:08.408Z,8.77
2018-06-04T03:43:35.935Z,7.90
2018-06-04T03:46:03.468Z,8.37
2018-06-04T03:48:31.009Z,7.97
2018-06-04T03:50:58.508Z,8.90
2018-06-04T03:53:26.056Z,7.53
2018-06-04T03:55:53.556Z,8.07
2018-06-04T03:58:21.080Z,9.30
2018-06-04T04:00:48.680Z,8.57
2018-06-04T04:03:16.191Z,8.30
2018-06-04T04:05:43.713Z,8.77
2018-06-04T04:08:11.221Z,8.13
2018-06-04T04:10:38.752Z,9.37
2018-06-04T04:13:06.449Z,8.77
2018-06-04T04:18:07.317Z,8.83
2018-06-04T04:20:34.846Z,8.60
2018-06-04T04:23:02.370Z,8.93
2018-06-04T04:25:29.897Z,9.70
2018-06-04T04:27:57.411Z,9.00
2018-06-04T04:30:25.050Z,9.20
2018-06-04T04:32:52.590Z,8.50
2018-06-04T04:35:20.127Z,8.90
2018-06-04T04:37:47.686Z,9.53
2018-06-04T04:40:15.161Z,9.37
2018-06-04T04:42:42.714Z,8.60
2018-06-04T04:45:10.224Z,9.10
2018-06-04T04:47:37.808Z,9.17
2018-06-04T04:50:05.326Z,9.50
2018-06-04T04:52:32.817Z,9.27
2018-06-04T04:55:00.349Z,10.23
2018-06-04T04:57:27.833Z,10.33
2018-06-04T04:59:55.357Z,9.97
2018-06-04T05:02:22.849Z,11.27
2018-06-04T05:04:50.363Z,11.23
2018-06-04T05:07:17.845Z,10.83
2018-06-04T05:09:45.385Z,10.83
2018-06-04T05:12:12.869Z,11.27
2018-06-04T05:14:40.400Z,9.90
2018-06-04T05:17:07.914Z,10.03
2018-06-04T05:19:35.571Z,11.00
2018-06-04T05:22:03.121Z,10.90
2018-06-04T05:24:30.637Z,10.83
2018-06-04T05:26:58.128Z,11.20
2018-06-04T05:29:25.628Z,10.90
2018-06-04T05:31:53.145Z,11.60
2018-06-04T05:34:20.633Z,10.83
2018-06-04T05:36:48.144Z,10.93
2018-06-04T05:39:15.668Z,10.30
2018-06-04T05:41:43.204Z,10.70
2018-06-04T05:44:10.709Z,9.97
2018-06-04T05:46:38.243Z,11.33
2018-06-04T05:49:05.737Z,12.17
2018-06-04T05:51:33.256Z,12.03
2018-06-04T05:54:00.757Z,12.07
2018-06-04T05:56:28.302Z,10.70
2018-06-04T05:58:55.956Z,10.87
2018-06-04T06:01:23.508Z,11.13
2018-06-04T06:03:51.024Z,11.67
2018-06-04T06:06:18.598Z,10.77
2018-06-04T06:08:46.282Z,13.07
2018-06-04T06:11:13.815Z,11.20
2018-06-04T06:13:41.613Z,11.20
2018-06-04T06:16:09.162Z,12.17
2018-06-04T06:18:36.696Z,11.83
2018-06-04T06:21:04.322Z,13.33
2018-06-04T06:23:31.909Z,12.90
2018-06-04T06:25:59.459Z,12.63
2018-06-04T06:28:27.218Z,15.97
2018-06-04T06:30:54.777Z,13.03
2018-06-04T06:33:22.329Z,12.70
2018-06-04T06:35:49.856Z,12.93
2018-06-04T06:38:17.339Z,13.10
2018-06-04T06:45:27.382Z,13.67
2018-06-04T06:47:55.728Z,13.33
2018-06-04T06:50:23.310Z,12.07
2018-06-04T06:52:50.845Z,12.80
2018-06-04T06:55:18.394Z,13.43
2018-06-04T06:57:45.958Z,13.13
2018-06-04T07:00:13.525Z,13.10
2018-06-04T07:02:40.967Z,12.70
2018-06-04T07:05:08.515Z,12.97
2018-06-04T07:07:36.139Z,12.63
2018-06-04T07:10:03.692Z,13.40
2018-06-04T07:12:31.192Z,14.37
2018-06-04T07:14:58.676Z,13.40
2018-06-04T07:17:26.125Z,14.07
2018-06-04T07:19:53.624Z,12.90
2018-06-04T07:22:21.145Z,13.30
2018-06-04T07:24:48.549Z,13.53
2018-06-04T07:27:16.062Z,13.23
2018-06-04T07:29:43.602Z,12.67
2018-06-04T07:32:11.130Z,14.00
2018-06-04T07:34:38.621Z,13.17
2018-06-04T07:37:06.137Z,13.30
2018-06-04T07:39:33.633Z,12.83
2018-06-04T07:42:01.138Z,11.87
2018-06-04T07:44:28.631Z,12.70
2018-06-04T07:46:56.157Z,11.27
2018-06-04T07:49:23.648Z,13.57
2018-06-04T07:51:51.152Z,11.97
2018-06-04T07:54:18.564Z,12.00
2018-06-04T07:56:46.081Z,12.17
2018-06-04T07:59:13.572Z,12.37
2018-06-04T08:01:41.093Z,12.20
2018-06-04T08:04:08.597Z,12.47
2018-06-04T08:06:36.217Z,12.60
2018-06-04T08:09:05.081Z,12.63
2018-06-04T08:11:32.597Z,11.20
2018-06-04T08:14:00.109Z,11.77
2018-06-04T08:16:27.564Z,10.40
2018-06-04T08:18:54.976Z,10.27
2018-06-04T08:21:22.488Z,10.33
2018-06-04T08:23:50.022Z,11.40
2018-06-04T08:26:17.513Z,11.97
2018-06-04T08:28:45.058Z,10.97
2018-06-04T08:31:12.521Z,10.73
2018-06-04T08:33:40.109Z,10.60
2018-06-04T08:36:07.657Z,11.37
2018-06-04T08:38:35.192Z,13.00
2018-06-04T08:41:02.672Z,11.70
2018-06-04T08:43:30.175Z,11.53
2018-06-04T08:45:57.754Z,12.77
2018-06-04T08:48:25.212Z,11.97
2018-06-04T08:50:52.760Z,11.80
2018-06-04T08:53:20.233Z,10.40
2018-06-04T08:55:47.728Z,11.23
2018-06-04T08:58:15.237Z,10.63
2018-06-04T09:00:42.733Z,10.23
2018-06-04T09:03:10.245Z,10.30
2018-06-04T09:05:37.767Z,10.47
2018-06-04T09:08:05.302Z,9.93
2018-06-04T09:10:32.716Z,9.97
2018-06-04T09:13:00.222Z,10.10
2018-06-04T09:15:27.722Z,10.60
2018-06-04T09:17:55.268Z,9.30
2018-06-04T09:20:22.761Z,9.23
2018-06-04T09:22:50.275Z,9.07
2018-06-04T09:25:17.781Z,9.63
2018-06-04T09:27:45.296Z,9.40
2018-06-04T09:30:12.816Z,9.90
2018-06-04T09:32:40.353Z,9.23
2018-06-04T09:35:07.856Z,9.47
2018-06-04T09:37:35.512Z,10.40
2018-06-04T09:40:03.149Z,10.53
2018-06-04T09:42:30.930Z,8.70
2018-06-04T09:44:58.410Z,9.13
2018-06-04T09:47:26.119Z,9.30
2018-06-04T09:49:53.616Z,9.60
2018-06-04T09:52:21.145Z,9.30
2018-06-04T09:54:48.664Z,9.50
2018-06-04T09:57:16.149Z,9.63
2018-06-04T09:59:43.651Z,9.00
2018-06-04T10:02:11.055Z,8.73
2018-06-04T10:04:38.600Z,9.37
2018-06-04T10:07:06.109Z,8.67
2018-06-04T10:09:33.644Z,9.70
2018-06-04T10:12:01.209Z,8.90
2018-06-04T10:14:28.773Z,9.20
2018-06-04T10:16:56.308Z,9.47
2018-06-04T10:19:23.849Z,9.13
2018-06-04T10:21:51.417Z,7.97
2018-06-04T10:24:19.099Z,8.67
2018-06-04T10:26:46.625Z,8.83
2018-06-04T10:29:14.237Z,8.90
2018-06-04T10:31:42.241Z,9.47
2018-06-04T10:34:09.914Z,9.00
2018-06-04T10:36:37.505Z,9.03
2018-06-04T10:39:06.465Z,7.60
2018-06-04T10:41:34.025Z,8.77
2018-06-04T10:44:01.660Z,8.87
2018-06-04T10:46:29.164Z,7.93
2018-06-04T10:48:56.865Z,7.97
2018-06-04T10:51:24.388Z,7.77
2018-06-04T10:53:51.982Z,8.10
2018-06-04T10:56:19.516Z,8.30
2018-06-04T10:58:47.078Z,8.10
2018-06-04T11:01:14.651Z,8.23
2018-06-04T11:03:42.200Z,7.47
2018-06-04T11:06:10.329Z,7.30
2018-06-04T11:08:37.818Z,8.07
2018-06-04T11:11:05.355Z,8.30
2018-06-04T11:13:32.905Z,8.27
2018-06-04T11:16:00.412Z,8.33
2018-06-04T11:18:27.931Z,7.17
2018-06-04T11:20:55.458Z,8.47
2018-06-04T11:23:22.954Z,8.30
2018-06-04T11:25:50.511Z,7.70
2018-06-04T11:28:17.928Z,7.80
2018-06-04T11:30:45.444Z,8.07
2018-06-04T11:33:12.961Z,7.90
2018-06-04T11:35:40.431Z,7.20
2018-06-04T11:38:07.852Z,7.83
2018-06-04T11:40:35.369Z,7.10
2018-06-04T11:43:02.888Z,5.93
2018-06-04T11:45:30.413Z,6.03
2018-06-04T11:47:57.924Z,6.83
2018-06-04T11:50:25.557Z,7.30
2018-06-04T11:52:53.052Z,7.20
2018-06-04T11:55:20.560Z,6.53
2018-06-04T11:57:48.053Z,6.97
2018-06-04T12:00:15.521Z,6.43
2018-06-04T12:02:42.940Z,6.50
2018-06-04T12:05:10.505Z,6.97
2018-06-04T12:07:37.976Z,6.37
2018-06-04T12:10:05.494Z,5.57
2018-06-04T12:12:33.008Z,6.00
2018-06-04T12:15:00.540Z,5.50
2018-06-04T12:17:28.101Z,5.63
2018-06-04T12:19:55.717Z,5.87
2018-06-04T12:22:23.328Z,5.90
2018-06-04T12:24:51.229Z,5.63
2018-06-04T12:27:19.021Z,6.13
2018-06-04T12:29:46.745Z,5.50
2018-06-04T12:32:14.204Z,5.37
2018-06-04T12:34:41.865Z,6.20
2018-06-04T12:37:09.442Z,5.10
2018-06-04T12:39:37.279Z,5.30
2018-06-04T12:42:04.813Z,4.97
2018-06-04T12:44:32.336Z,5.97
2018-06-04T12:47:00.032Z,5.03
2018-06-04T12:49:27.599Z,4.90
2018-06-04T12:51:55.208Z,4.97
2018-06-04T12:54:22.788Z,4.87
2018-06-04T12:56:50.333Z,4.70
2018-06-04T12:59:17.911Z,4.03
2018-06-04T13:01:45.499Z,3.87
2018-06-04T13:04:13.086Z,4.43
2018-06-04T13:06:40.664Z,4.40
2018-06-04T13:09:08.199Z,4.53
2018-06-04T13:11:35.865Z,4.40
2018-06-04T13:14:03.604Z,4.40
2018-06-04T13:16:31.285Z,4.17
2018-06-04T13:18:58.828Z,4.00
2018-06-04T13:21:26.456Z,4.70
2018-06-04T13:23:53.984Z,4.40
2018-06-04T13:26:22.006Z,4.27
2018-06-04T13:28:49.518Z,4.47
2018-06-04T13:31:17.103Z,4.37
2018-06-04T13:33:44.584Z,4.00
2018-06-04T13:36:12.112Z,4.87
2018-06-04T13:38:39.643Z,4.87
2018-06-04T13:41:07.137Z,4.67
2018-06-04T13:43:34.705Z,4.30
2018-06-04T13:46:02.268Z,3.93
2018-06-04T13:48:29.776Z,3.77
2018-06-04T13:50:57.309Z,4.17
2018-06-04T13:53:24.857Z,4.43
2018-06-04T13:55:52.394Z,3.87
2018-06-04T13:58:20.024Z,3.70
2018-06-04T14:00:47.517Z,3.80
2018-06-04T14:03:15.059Z,3.63
2018-06-04T14:05:42.625Z,4.43
2018-06-04T14:08:10.199Z,4.00
2018-06-04T14:10:37.759Z,4.20
2018-06-04T14:13:05.486Z,4.43
2018-06-04T14:15:32.933Z,4.10
2018-06-04T14:18:00.590Z,4.37
2018-06-04T14:20:28.136Z,3.90
2018-06-04T14:22:55.719Z,4.43
2018-06-04T14:25:23.177Z,4.60
2018-06-04T14:27:50.641Z,4.40
2018-06-04T14:30:18.160Z,5.43
2018-06-04T14:32:45.717Z,4.80
2018-06-04T14:35:13.306Z,4.90
2018-06-04T14:37:40.964Z,5.20
2018-06-04T14:40:08.584Z,5.60
2018-06-04T14:42:36.277Z,5.77
2018-06-04T14:45:04.699Z,5.40
2018-06-04T14:47:32.720Z,5.43
2018-06-04T14:50:00.432Z,5.17
2018-06-04T14:52:28.149Z,5.33
2018-06-04T14:54:55.762Z,5.13
2018-06-04T14:57:23.396Z,5.07
2018-06-04T14:59:51.060Z,4.70
2018-06-04T15:02:18.790Z,4.77
2018-06-04T15:04:46.443Z,5.13
2018-06-04T15:07:14.092Z,5.10
2018-06-04T15:09:41.663Z,5.07
2018-06-04T15:12:09.289Z,5.63
2018-06-04T15:14:36.856Z,4.70
2018-06-04T15:17:04.684Z,5.10
2018-06-04T15:19:32.334Z,5.23
2018-06-04T15:21:59.973Z,4.90
2018-06-04T15:24:27.716Z,5.60
2018-06-04T15:26:55.316Z,5.20
2018-06-04T15:29:22.856Z,5.53
2018-06-04T15:31:50.402Z,5.63
2018-06-04T15:34:17.977Z,6.37
2018-06-04T15:36:45.848Z,6.20
2018-06-04T15:39:13.531Z,7.10
2018-06-04T15:41:41.141Z,6.17
2018-06-04T15:44:08.742Z,6.77
2018-06-04T15:46:36.956Z,7.13
2018-06-04T15:49:04.467Z,6.47
2018-06-04T15:51:32.190Z,5.97
2018-06-04T15:53:59.611Z,6.43
2018-06-04T15:56:27.120Z,6.80
2018-06-04T15:58:54.616Z,6.43
2018-06-04T16:01:22.131Z,5.93
2018-06-04T16:03:49.624Z,6.50
2018-06-04T16:06:17.136Z,6.50
2018-06-04T16:08:44.548Z,6.23
2018-06-04T16:11:12.044Z,6.40
2018-06-04T16:13:39.467Z,6.43
2018-06-04T16:16:07.255Z,6.50
2018-06-04T16:18:34.896Z,6.13
2018-06-04T16:21:02.517Z,5.97
2018-06-04T16:23:30.327Z,6.03
2018-06-04T16:25:57.906Z,6.23
2018-06-04T16:28:25.368Z,5.53
2018-06-04T16:30:53.132Z,6.20
2018-06-04T16:33:21.096Z,5.70
2018-06-04T16:35:48.796Z,5.60
2018-06-04T16:38:16.463Z,5.27
2018-06-04T16:40:44.104Z,5.07
2018-06-04T16:43:11.588Z,5.97
2018-06-04T16:45:39.138Z,5.27
2018-06-04T16:48:07.683Z,5.40
2018-06-04T16:50:35.239Z,5.50
2018-06-04T16:53:02.993Z,5.40
2018-06-04T16:55:30.625Z,5.17
2018-06-04T16:57:58.330Z,5.13
2018-06-04T17:00:25.950Z,5.37
2018-06-04T17:02:53.708Z,5.37
2018-06-04T17:05:21.973Z,5.20
2018-06-04T17:07:49.668Z,5.27
2018-06-04T17:10:17.948Z,5.10
2018-06-04T17:12:45.708Z,5.60
2018-06-04T17:15:13.296Z,5.07
2018-06-04T17:17:41.549Z,5.10
2018-06-04T17:20:09.152Z,5.40
2018-06-04T17:22:36.700Z,5.30
2018-06-04T17:25:04.417Z,5.60
2018-06-04T17:27:31.967Z,5.30
2018-06-04T17:29:59.609Z,5.50
2018-06-04T17:32:27.215Z,5.27
2018-06-04T17:34:54.775Z,5.37
2018-06-04T17:37:22.594Z,5.53
2018-06-04T17:39:50.349Z,5.00
2018-06-04T17:42:17.938Z,5.77
2018-06-04T17:44:45.537Z,5.57
2018-06-04T17:47:13.469Z,5.70
2018-06-04T17:49:41.121Z,5.53
2018-06-04T17:52:08.871Z,5.30
2018-06-04T17:54:36.476Z,5.50
2018-06-04T17:57:04.266Z,5.63
2018-06-04T17:59:33.181Z,5.43
2018-06-04T18:02:00.657Z,5.67
2018-06-04T18:04:28.313Z,5.37
2018-06-04T18:06:56.915Z,4.90
2018-06-04T18:09:24.469Z,5.37
2018-06-04T18:11:52.249Z,5.37
2018-06-04T18:14:19.786Z,5.13
2018-06-04T18:16:47.353Z,6.23
2018-06-04T18:19:14.860Z,5.50
2018-06-04T18:21:42.370Z,5.83
2018-06-04T18:24:10.421Z,4.93
2018-06-04T18:26:38.699Z,6.13
2018-06-04T18:29:06.309Z,4.97
2018-06-04T18:31:33.949Z,6.23
2018-06-04T18:34:01.480Z,5.93
2018-06-04T18:36:28.967Z,6.17
2018-06-04T18:38:56.671Z,6.27
2018-06-04T18:41:24.359Z,6.57
2018-06-04T18:43:51.808Z,6.00
2018-06-04T18:46:19.365Z,5.50
2018-06-04T18:48:46.928Z,6.40
2018-06-04T18:51:14.671Z,5.80
2018-06-04T18:53:42.259Z,6.53
2018-06-04T18:56:09.829Z,6.20
2018-06-04T18:58:37.429Z,6.33
2018-06-04T19:01:05.233Z,5.50
2018-06-04T19:03:32.808Z,5.70
2018-06-04T19:06:00.392Z,6.20
2018-06-04T19:08:27.892Z,6.23
2018-06-04T19:10:55.426Z,6.67
2018-06-04T19:13:22.936Z,6.30
2018-06-04T19:15:50.452Z,6.83
2018-06-04T19:18:17.971Z,6.80
2018-06-04T19:20:45.427Z,6.27
2018-06-04T19:23:12.928Z,6.03
2018-06-04T19:25:40.558Z,6.37
2018-06-04T19:28:08.101Z,6.17
2018-06-04T19:30:36.236Z,6.87
2018-06-04T19:33:04.389Z,6.70
2018-06-04T19:35:31.908Z,7.30
2018-06-04T19:37:59.431Z,7.00
2018-06-04T19:40:26.965Z,7.43
2018-06-04T19:42:54.472Z,6.40
2018-06-04T19:45:21.989Z,6.90
2018-06-04T19:47:49.543Z,7.00
2018-06-04T19:50:17.068Z,7.30
2018-06-04T19:52:44.632Z,7.60
2018-06-04T19:55:12.066Z,7.40
2018-06-04T19:57:39.813Z,6.77
2018-06-04T20:00:07.412Z,7.33
2018-06-04T20:02:34.964Z,7.00
2018-06-04T20:05:02.461Z,7.50
2018-06-04T20:07:29.998Z,7.63
2018-06-04T20:09:57.520Z,7.43
2018-06-04T20:12:25.078Z,7.20
2018-06-04T20:14:52.610Z,8.43
2018-06-04T20:17:20.193Z,7.90
2018-06-04T20:19:47.751Z,8.23
2018-06-04T20:22:15.280Z,7.60
2018-06-04T20:24:42.857Z,7.07
2018-06-04T20:27:10.412Z,8.00
2018-06-04T20:29:37.928Z,7.03
2018-06-04T20:32:05.471Z,7.63
2018-06-04T20:34:32.989Z,7.63
2018-06-04T20:37:00.480Z,7.17
2018-06-04T20:39:27.994Z,7.07
2018-06-04T20:41:55.483Z,7.47
2018-06-04T20:44:23.061Z,7.10
2018-06-04T20:46:50.575Z,7.37
2018-06-04T20:49:18.076Z,7.67
2018-06-04T20:51:45.556Z,8.40
2018-06-04T20:54:13.000Z,7.70
2018-06-04T20:56:40.497Z,8.57
2018-06-04T20:59:08.080Z,7.80
2018-06-04T21:01:35.571Z,8.47
2018-06-04T21:04:03.096Z,8.37
2018-06-04T21:06:30.601Z,10.10
2018-06-04T21:08:58.040Z,7.57
2018-06-04T21:11:25.534Z,9.33
2018-06-04T21:13:53.086Z,9.03
2018-06-04T21:16:20.592Z,8.87
2018-06-04T21:18:48.077Z,9.17
2018-06-04T21:21:15.616Z,8.87
2018-06-04T21:23:43.112Z,9.07
2018-06-04T21:26:10.564Z,8.97
2018-06-04T21:28:38.084Z,9.00
2018-06-04T21:31:05.633Z,8.70
2018-06-04T21:33:33.148Z,9.20
2018-06-04T21:36:00.595Z,9.67
2018-06-04T21:38:28.079Z,9.33
2018-06-04T21:40:55.597Z,8.73
2018-06-04T21:43:23.117Z,9.60
2018-06-04T21:45:50.638Z,7.97
2018-06-04T21:48:18.064Z,9.43
2018-06-04T21:50:45.586Z,9.13
2018-06-04T21:53:13.100Z,8.93
2018-06-04T21:55:40.624Z,9.87
2018-06-04T21:58:08.153Z,9.63
2018-06-04T22:01:11.245Z,8.83
2018-06-04T22:03:38.826Z,9.30
2018-06-04T22:06:06.348Z,8.93
2018-06-04T22:08:33.765Z,10.17
2018-06-04T22:11:01.280Z,9.43
2018-06-04T22:13:28.784Z,8.87
2018-06-04T22:15:56.328Z,9.77
2018-06-04T22:18:23.824Z,9.23
2018-06-04T22:20:51.349Z,9.87
2018-06-04T22:23:18.856Z,11.03
2018-06-04T22:25:46.408Z,9.50
2018-06-04T22:28:13.936Z,9.40
2018-06-04T22:30:41.480Z,10.03
2018-06-04T22:33:09.038Z,9.03
2018-06-04T22:35:36.567Z,10.97
2018-06-04T22:38:04.085Z,9.27
2018-06-04T22:40:31.631Z,9.93
2018-06-04T22:42:59.112Z,9.53
2018-06-04T22:45:26.644Z,10.47
2018-06-04T22:47:54.137Z,11.10
2018-06-04T22:50:21.640Z,10.90
2018-06-04T22:52:49.149Z,11.30
2018-06-04T22:55:16.665Z,9.23
2018-06-04T22:57:44.157Z,11.60
2018-06-04T23:00:30.845Z,11.10
2018-06-04T23:02:58.344Z,10.30
2018-06-04T23:05:26.033Z,9.67
2018-06-04T23:07:53.520Z,10.77
2018-06-04T23:10:21.031Z,10.67
2018-06-04T23:12:48.525Z,10.13
2018-06-04T23:15:16.018Z,9.97
2018-06-04T23:17:43.531Z,10.27
2018-06-04T23:20:11.032Z,11.37
2018-06-04T23:22:38.597Z,11.63
2018-06-04T23:25:06.092Z,11.80
2018-06-04T23:27:34.125Z,11.30
2018-06-04T23:30:01.629Z,10.60
2018-06-04T23:32:29.158Z,10.93
2018-06-04T23:34:56.652Z,11.83
2018-06-04T23:37:24.165Z,11.13
2018-06-04T23:39:51.645Z,10.40
2018-06-04T23:42:19.169Z,11.10
2018-06-04T23:44:46.676Z,11.83
2018-06-04T23:47:14.182Z,12.70
2018-06-04T23:49:41.692Z,11.50
2018-06-04T23:52:09.221Z,12.93
2018-06-04T23:54:36.704Z,12.30
2018-06-04T23:57:04.246Z,9.97
2018-06-04T23:59:31.752Z,10.80
